CDU weather

Camden Airport
New South Wales, Australia

Public forecast

Using degrees Celsius for public forecast. Weather courtesy of forecast.io.

METAR (pilot weather report)

Closest report is Sydney Kingsford Smith International Airport, 25.0 nm (46.4 km) ENE. Retrieved 2017/06/27 03:00 UTC (9 minutes ago):

YSSY 270300Z 25005G15KT 9999 FEW030 BKN220 BKN250 16/10 Q1025 NOSIG

TAF (pilot weather forecast)

Forecast is more than 12 hours old.

Closest forecast is Sydney Kingsford Smith International Airport, 25.0 nm (46.4 km) ENE. Retrieved 2017/06/26 00:33 UTC (1 day ago):

TAF YSSY 262308Z 2700/2806 29008KT 9999 FEW035 FM270200 18008KT 9999 FEW025 SCT035 FM270900 04006KT 9999 FEW035 FM271200 29008KT 9999 FEW030